Time;durP1;ratioP1;P1;durP2;ratioP2;P2;SDS_P1;SDS_P2;PMS_P1;PMS_P2;Temp;Humidity;BMP_temperature;BMP_pressure;BME280_temperature;BME280_humidity;BME280_pressure;Samples;Min_cycle;Max_cycle;Signal;HPM_P1;HPM_P2
2022/12/17 13:06:11;;;;;;;13.88;9.90;;;;;;;;;;5093406;28;20502;-76
2022/12/17 13:08:37;;;;;;;14.80;9.90;;;;;;;;;;5092030;28;20036;-77
2022/12/17 13:11:21;;;;;;;15.40;9.80;;;;;;;;;;5092195;28;20039;-77
2022/12/17 13:13:54;;;;;;;15.95;10.30;;;;;;;;;;5102522;28;20019;-77
2022/12/17 13:16:35;;;;;;;13.07;9.07;;;;;;;;;;5096324;28;20031;-76
2022/12/17 13:19:16;;;;;;;13.60;9.30;;;;;;;;;;5112314;28;20035;-77
2022/12/17 13:21:42;;;;;;;15.50;8.88;;;;;;;;;;5095413;28;20520;-78
2022/12/17 13:24:12;;;;;;;17.48;9.38;;;;;;;;;;5114172;28;20024;-77
2022/12/17 13:26:40;;;;;;;16.27;9.80;;;;;;;;;;5112317;28;20035;-77
2022/12/17 13:29:28;;;;;;;11.77;8.40;;;;;;;;;;5113874;28;20076;-77
2022/12/17 13:32:01;;;;;;;12.88;9.13;;;;;;;;;;5113232;28;20044;-75
2022/12/17 13:35:03;;;;;;;14.85;9.40;;;;;;;;;;5113502;28;20474;-76
2022/12/17 13:37:51;;;;;;;13.15;9.13;;;;;;;;;;5095222;28;20039;-76
2022/12/17 13:40:41;;;;;;;10.60;8.63;;;;;;;;;;5114412;28;20024;-77
2022/12/17 13:43:20;;;;;;;12.80;8.50;;;;;;;;;;5117364;28;20107;-77
2022/12/17 13:45:46;;;;;;;14.07;8.45;;;;;;;;;;5117303;28;20040;-76
2022/12/17 13:48:24;;;;;;;10.95;8.40;;;;;;;;;;5116113;28;20401;-76
2022/12/17 13:51:02;;;;;;;13.05;8.50;;;;;;;;;;5098897;28;20022;-77
2022/12/17 13:53:29;;;;;;;14.88;8.68;;;;;;;;;;5115869;28;20102;-77
2022/12/17 13:55:56;;;;;;;13.27;8.65;;;;;;;;;;5117294;28;20031;-77
2022/12/17 13:58:27;;;;;;;11.13;8.55;;;;;;;;;;5115844;28;20538;-78
2022/12/17 14:01:10;;;;;;;10.85;8.43;;;;;;;;;;5115831;28;20477;-78
2022/12/17 14:03:36;;;;;;;16.52;9.25;;;;;;;;;;5098650;28;20461;-77
2022/12/17 14:06:03;;;;;;;12.27;9.57;;;;;;;;;;5115205;28;20024;-78
2022/12/17 14:08:31;;;;;;;14.18;8.57;;;;;;;;;;5114994;28;20358;-76
2022/12/17 14:12:20;;;;;;;12.57;8.85;;;;;;;;;;5115040;28;20471;-76
2022/12/17 14:13:44;;;;;;;14.55;9.30;;;;;;;;;;5104990;28;20027;-76
2022/12/17 14:16:14;;;;;;;18.67;9.43;;;;;;;;;;5095621;28;20047;-76
2022/12/17 14:18:41;;;;;;;14.05;8.88;;;;;;;;;;5095495;28;20481;-75
2022/12/17 14:21:08;;;;;;;13.85;9.70;;;;;;;;;;5094302;28;20024;-76
2022/12/17 14:23:34;;;;;;;12.00;9.05;;;;;;;;;;5094237;28;20031;-75
2022/12/17 14:25:59;;;;;;;14.63;9.43;;;;;;;;;;5095517;28;20071;-75
2022/12/17 14:28:32;;;;;;;12.60;9.45;;;;;;;;;;5060653;28;20498;-76
2022/12/17 14:31:12;;;;;;;11.68;9.02;;;;;;;;;;5094061;28;20028;-76
2022/12/17 14:33:38;;;;;;;14.32;9.15;;;;;;;;;;5095119;28;20056;-77
2022/12/17 14:36:06;;;;;;;15.10;9.10;;;;;;;;;;5076987;28;20035;-75
2022/12/17 14:38:32;;;;;;;13.13;9.20;;;;;;;;;;5077073;28;20385;-77
2022/12/17 14:42:24;;;;;;;14.65;9.35;;;;;;;;;;5094017;28;20036;-77
2022/12/17 14:43:55;;;;;;;12.68;9.35;;;;;;;;;;5094947;28;20032;-78
2022/12/17 14:46:21;;;;;;;15.32;9.90;;;;;;;;;;5076894;28;20024;-76
2022/12/17 14:49:02;;;;;;;12.32;9.52;;;;;;;;;;5093762;28;20038;-77
2022/12/17 14:51:39;;;;;;;13.80;9.55;;;;;;;;;;5093411;28;20032;-77
2022/12/17 14:54:13;;;;;;;13.77;10.10;;;;;;;;;;5093345;28;20482;-77
2022/12/17 14:56:40;;;;;;;10.93;8.55;;;;;;;;;;5094769;28;20066;-77
2022/12/17 14:59:36;;;;;;;14.00;9.63;;;;;;;;;;5076599;28;20028;-76
2022/12/17 15:02:09;;;;;;;17.95;10.15;;;;;;;;;;5093788;28;20029;-78
2022/12/17 15:04:36;;;;;;;14.35;9.70;;;;;;;;;;5094814;28;20020;-77
2022/12/17 15:07:01;;;;;;;13.07;9.88;;;;;;;;;;5093330;28;20077;-80
2022/12/17 15:09:27;;;;;;;12.73;9.05;;;;;;;;;;5093388;28;20032;-77
2022/12/17 15:11:52;;;;;;;11.70;9.32;;;;;;;;;;5093155;28;20071;-78
2022/12/17 15:14:18;;;;;;;14.05;10.13;;;;;;;;;;5108127;28;20036;-77
2022/12/17 15:16:43;;;;;;;12.93;9.15;;;;;;;;;;5113707;28;20024;-77
2022/12/17 15:19:08;;;;;;;11.15;9.38;;;;;;;;;;5114710;28;20431;-77
2022/12/17 15:21:34;;;;;;;14.10;9.75;;;;;;;;;;5113306;28;20076;-77
2022/12/17 15:23:59;;;;;;;23.27;10.68;;;;;;;;;;5113527;28;20024;-76
2022/12/17 15:26:25;;;;;;;19.27;10.35;;;;;;;;;;5113358;28;20050;-77
2022/12/17 15:28:50;;;;;;;18.85;10.77;;;;;;;;;;5113326;28;20039;-77
2022/12/17 15:31:15;;;;;;;17.70;10.55;;;;;;;;;;5113198;28;20028;-77
2022/12/17 15:33:41;;;;;;;14.50;10.35;;;;;;;;;;5114290;28;20486;-78
2022/12/17 15:36:08;;;;;;;17.50;10.02;;;;;;;;;;5113117;28;20036;-77
2022/12/17 15:38:33;;;;;;;15.82;9.45;;;;;;;;;;5113736;28;20027;-78
2022/12/17 15:40:59;;;;;;;18.75;9.90;;;;;;;;;;5114166;28;20367;-78
2022/12/17 15:43:25;;;;;;;13.73;9.30;;;;;;;;;;5114988;28;20417;-77
2022/12/17 15:45:51;;;;;;;12.95;9.98;;;;;;;;;;5113711;28;20115;-77
2022/12/17 15:48:22;;;;;;;13.43;9.18;;;;;;;;;;5113902;28;20047;-77
2022/12/17 15:50:47;;;;;;;12.40;9.27;;;;;;;;;;5113833;28;20020;-77
2022/12/17 15:53:13;;;;;;;13.35;8.57;;;;;;;;;;5115093;28;20039;-76
2022/12/17 15:55:39;;;;;;;10.48;8.15;;;;;;;;;;5113519;28;20072;-76
2022/12/17 15:58:05;;;;;;;13.43;8.90;;;;;;;;;;5113520;28;20039;-76
2022/12/17 16:00:31;;;;;;;13.13;9.13;;;;;;;;;;5114925;28;20028;-76
2022/12/17 16:02:56;;;;;;;14.65;9.10;;;;;;;;;;5113897;27;20019;-76
2022/12/17 16:05:22;;;;;;;12.15;8.27;;;;;;;;;;5113367;28;20027;-76
2022/12/17 16:07:48;;;;;;;12.18;8.07;;;;;;;;;;5096306;28;20166;-76
2022/12/17 16:10:14;;;;;;;14.48;8.82;;;;;;;;;;5114694;28;20110;-75
2022/12/17 16:12:39;;;;;;;11.40;8.45;;;;;;;;;;5112454;28;20521;-75
2022/12/17 16:15:06;;;;;;;15.07;8.40;;;;;;;;;;5092648;28;20028;-75
2022/12/17 16:17:32;;;;;;;14.50;8.07;;;;;;;;;;5092709;28;20398;-75
2022/12/17 16:19:59;;;;;;;13.50;8.00;;;;;;;;;;5092482;28;20431;-75
2022/12/17 16:22:25;;;;;;;12.45;7.55;;;;;;;;;;5092763;28;20099;-75
2022/12/17 16:24:51;;;;;;;13.05;8.07;;;;;;;;;;5092952;28;20071;-74
2022/12/17 16:27:17;;;;;;;10.30;8.13;;;;;;;;;;5092553;28;20038;-74
2022/12/17 16:29:42;;;;;;;15.68;8.10;;;;;;;;;;5093777;28;20110;-75
2022/12/17 16:32:08;;;;;;;8.98;7.63;;;;;;;;;;5075472;28;20445;-75
2022/12/17 16:34:34;;;;;;;11.80;8.30;;;;;;;;;;5093963;28;20064;-75
2022/12/17 16:37:00;;;;;;;9.48;7.47;;;;;;;;;;5092599;28;20478;-75
2022/12/17 16:39:25;;;;;;;8.70;7.10;;;;;;;;;;5093879;28;20051;-74
2022/12/17 16:41:51;;;;;;;10.35;7.43;;;;;;;;;;5092740;28;20023;-74
2022/12/17 16:44:16;;;;;;;9.50;7.10;;;;;;;;;;5058709;28;20081;-75
2022/12/17 16:46:43;;;;;;;9.75;7.30;;;;;;;;;;5093559;28;20028;-75
2022/12/17 16:49:11;;;;;;;9.13;7.13;;;;;;;;;;5094074;28;20477;-75
2022/12/17 16:51:37;;;;;;;13.10;6.88;;;;;;;;;;5075442;28;20028;-75
2022/12/17 16:54:07;;;;;;;8.82;7.63;;;;;;;;;;5092197;28;20402;-75
2022/12/17 16:56:33;;;;;;;11.70;8.00;;;;;;;;;;5092399;28;20463;-75
2022/12/17 16:58:58;;;;;;;9.85;7.50;;;;;;;;;;5092354;28;20035;-75
2022/12/17 17:01:25;;;;;;;9.82;7.57;;;;;;;;;;5093904;28;20028;-74
2022/12/17 17:03:51;;;;;;;11.23;7.70;;;;;;;;;;5092672;28;20024;-74
2022/12/17 17:06:17;;;;;;;13.38;7.50;;;;;;;;;;5075205;28;20485;-74
2022/12/17 17:08:43;;;;;;;14.30;7.63;;;;;;;;;;5093758;28;20024;-75
2022/12/17 17:11:20;;;;;;;10.77;7.68;;;;;;;;;;5094304;28;20378;-74
2022/12/17 17:13:50;;;;;;;10.68;7.53;;;;;;;;;;5085842;28;20047;-75
2022/12/17 17:16:16;;;;;;;10.50;7.55;;;;;;;;;;5116214;28;20382;-75
2022/12/17 17:18:42;;;;;;;11.25;7.78;;;;;;;;;;5117898;28;20031;-75
2022/12/17 17:21:20;;;;;;;10.73;7.63;;;;;;;;;;5116549;28;20108;-74
2022/12/17 17:23:47;;;;;;;9.38;7.07;;;;;;;;;;5116532;28;20434;-75
2022/12/17 17:26:13;;;;;;;13.45;7.97;;;;;;;;;;5117058;28;20077;-75
2022/12/17 17:28:38;;;;;;;14.13;7.47;;;;;;;;;;5116390;28;20032;-74
2022/12/17 17:31:06;;;;;;;11.93;7.22;;;;;;;;;;5116498;28;20382;-74
2022/12/17 17:33:37;;;;;;;10.57;7.10;;;;;;;;;;5099035;28;20081;-74
2022/12/17 17:36:10;;;;;;;8.95;7.00;;;;;;;;;;5116537;28;20031;-74
2022/12/17 17:38:37;;;;;;;9.10;6.50;;;;;;;;;;5116252;28;20441;-73
2022/12/17 17:41:03;;;;;;;11.52;7.18;;;;;;;;;;5116287;28;20027;-74
2022/12/17 17:43:29;;;;;;;10.23;7.50;;;;;;;;;;5116377;28;20061;-74
2022/12/17 17:45:55;;;;;;;9.77;7.68;;;;;;;;;;5117235;28;20027;-74
2022/12/17 17:48:21;;;;;;;11.52;8.45;;;;;;;;;;5099110;28;20027;-74
2022/12/17 17:51:00;;;;;;;10.40;8.27;;;;;;;;;;5116010;28;20181;-74
2022/12/17 17:53:25;;;;;;;14.13;7.53;;;;;;;;;;5116031;28;20076;-74
2022/12/17 17:55:51;;;;;;;10.18;8.13;;;;;;;;;;5117196;28;20110;-74
2022/12/17 17:58:16;;;;;;;11.68;7.80;;;;;;;;;;5117164;28;20062;-75
2022/12/17 18:00:42;;;;;;;10.30;7.88;;;;;;;;;;5115717;28;20051;-75
2022/12/17 18:03:07;;;;;;;11.77;8.25;;;;;;;;;;5116409;28;20031;-75
2022/12/17 18:05:41;;;;;;;12.02;8.27;;;;;;;;;;5116323;28;20035;-75
2022/12/17 18:08:06;;;;;;;9.52;7.47;;;;;;;;;;5117201;28;20436;-76
2022/12/17 18:10:32;;;;;;;10.98;8.43;;;;;;;;;;5115490;28;20123;-75
2022/12/17 18:15:41;;;;;;;10.73;7.80;;;;;;;;;;5080995;28;20035;-76
2022/12/17 18:18:06;;;;;;;12.75;8.50;;;;;;;;;;5096747;28;20031;-75
2022/12/17 18:20:32;;;;;;;14.15;8.38;;;;;;;;;;5104973;28;20031;-76
2022/12/17 18:22:57;;;;;;;11.68;8.48;;;;;;;;;;5115620;28;20038;-76
2022/12/17 18:25:23;;;;;;;14.05;8.50;;;;;;;;;;5117205;28;20059;-76
2022/12/17 18:27:51;;;;;;;11.23;8.82;;;;;;;;;;5114061;28;20031;-75
2022/12/17 18:30:16;;;;;;;11.48;8.25;;;;;;;;;;5116977;28;20043;-76
2022/12/17 18:32:42;;;;;;;10.93;7.78;;;;;;;;;;5114836;28;20093;-76
2022/12/17 18:35:08;;;;;;;12.77;8.07;;;;;;;;;;5115173;28;20035;-76
2022/12/17 18:37:33;;;;;;;10.65;7.82;;;;;;;;;;5115561;28;20024;-75
2022/12/17 18:39:59;;;;;;;11.82;8.02;;;;;;;;;;5116633;28;20038;-76
2022/12/17 18:45:11;;;;;;;11.10;7.53;;;;;;;;;;5116341;28;20081;-76
2022/12/17 18:47:36;;;;;;;12.38;7.55;;;;;;;;;;5116378;28;20069;-74
2022/12/17 18:50:02;;;;;;;11.25;7.82;;;;;;;;;;5116323;28;20051;-76
2022/12/17 18:52:27;;;;;;;9.63;7.30;;;;;;;;;;5116295;28;20458;-76
2022/12/17 18:54:52;;;;;;;10.80;7.07;;;;;;;;;;5097645;28;20027;-75
2022/12/17 18:57:18;;;;;;;10.52;7.63;;;;;;;;;;5115899;28;20031;-78
2022/12/17 18:59:43;;;;;;;11.80;7.20;;;;;;;;;;5116478;28;20035;-75
2022/12/17 19:02:10;;;;;;;8.82;7.18;;;;;;;;;;5114940;28;20027;-76
2022/12/17 19:04:36;;;;;;;9.82;7.28;;;;;;;;;;5115806;28;20118;-74
2022/12/17 19:07:02;;;;;;;13.75;8.07;;;;;;;;;;5115732;28;20103;-75
2022/12/17 19:09:30;;;;;;;14.77;7.28;;;;;;;;;;5115071;28;20496;-76
2022/12/17 19:11:56;;;;;;;10.45;7.35;;;;;;;;;;5115553;28;20087;-76
2022/12/17 19:14:22;;;;;;;10.75;7.57;;;;;;;;;;5114322;28;20074;-76
2022/12/17 19:16:48;;;;;;;11.43;8.02;;;;;;;;;;5097267;28;20393;-75
2022/12/17 19:19:13;;;;;;;14.90;7.60;;;;;;;;;;5114447;28;20027;-76
2022/12/17 19:21:39;;;;;;;13.68;7.72;;;;;;;;;;5114139;28;20031;-75
2022/12/17 19:24:07;;;;;;;12.15;7.88;;;;;;;;;;5114172;28;20031;-76
2022/12/17 19:26:33;;;;;;;9.95;7.35;;;;;;;;;;5115379;28;20020;-76
2022/12/17 19:28:59;;;;;;;11.77;7.63;;;;;;;;;;5115284;28;20034;-76
2022/12/17 19:31:27;;;;;;;9.85;7.72;;;;;;;;;;5114047;28;20028;-76
2022/12/17 19:33:57;;;;;;;10.32;7.35;;;;;;;;;;5113941;28;20047;-76
2022/12/17 19:36:24;;;;;;;11.90;7.97;;;;;;;;;;5115222;28;20023;-76
2022/12/17 19:38:57;;;;;;;10.10;7.80;;;;;;;;;;5114793;28;20023;-76
2022/12/17 19:41:24;;;;;;;15.70;8.18;;;;;;;;;;5114110;28;20035;-76
2022/12/17 19:43:58;;;;;;;11.10;7.63;;;;;;;;;;5113905;28;20478;-75
2022/12/17 19:46:24;;;;;;;12.80;7.43;;;;;;;;;;5096936;28;20035;-76
2022/12/17 19:48:50;;;;;;;11.55;8.18;;;;;;;;;;5113802;28;20112;-75
2022/12/17 19:51:18;;;;;;;10.65;8.15;;;;;;;;;;5096506;28;20114;-75
2022/12/17 19:53:45;;;;;;;11.55;8.30;;;;;;;;;;5114209;28;20161;-76
2022/12/17 19:56:24;;;;;;;9.93;8.10;;;;;;;;;;5114673;28;20051;-76
2022/12/17 19:58:53;;;;;;;14.80;8.55;;;;;;;;;;5113803;28;20023;-75
2022/12/17 20:01:23;;;;;;;13.00;8.73;;;;;;;;;;5115219;28;20442;-75
2022/12/17 20:03:49;;;;;;;11.77;8.50;;;;;;;;;;5113422;28;20023;-75
2022/12/17 20:06:17;;;;;;;12.27;8.38;;;;;;;;;;5114585;28;20024;-75
2022/12/17 20:08:42;;;;;;;13.07;8.85;;;;;;;;;;5113359;28;20041;-76
2022/12/17 20:13:55;;;;;;;13.70;8.80;;;;;;;;;;5101883;28;20509;-77
2022/12/17 20:16:21;;;;;;;13.77;9.30;;;;;;;;;;5093122;28;20028;-77
2022/12/17 20:18:46;;;;;;;12.70;8.77;;;;;;;;;;5094046;28;20032;-75
2022/12/17 20:21:11;;;;;;;11.65;8.55;;;;;;;;;;5092673;28;20493;-76
2022/12/17 20:23:37;;;;;;;12.77;8.73;;;;;;;;;;5093033;28;20032;-74
2022/12/17 20:26:08;;;;;;;11.77;8.80;;;;;;;;;;5075880;28;20047;-75
2022/12/17 20:28:34;;;;;;;15.85;8.55;;;;;;;;;;5092964;28;20024;-75
2022/12/17 20:31:00;;;;;;;12.57;9.20;;;;;;;;;;5093736;28;20041;-75
2022/12/17 20:33:26;;;;;;;12.65;8.68;;;;;;;;;;5092482;28;20077;-77
2022/12/17 20:35:52;;;;;;;15.63;9.55;;;;;;;;;;5075902;28;20392;-75
2022/12/17 20:38:17;;;;;;;14.43;9.15;;;;;;;;;;5092794;28;20024;-75
2022/12/17 20:40:43;;;;;;;13.00;8.85;;;;;;;;;;5092987;28;20355;-76
2022/12/17 20:43:08;;;;;;;16.00;9.20;;;;;;;;;;5093595;28;20024;-75
2022/12/17 20:45:34;;;;;;;12.57;8.85;;;;;;;;;;5092626;28;20377;-77
2022/12/17 20:47:59;;;;;;;13.45;9.68;;;;;;;;;;5093613;28;20032;-76
2022/12/17 20:50:25;;;;;;;14.25;9.40;;;;;;;;;;5091713;28;20028;-76
2022/12/17 20:52:50;;;;;;;12.98;9.60;;;;;;;;;;5092170;28;20482;-75
2022/12/17 20:55:16;;;;;;;11.85;8.70;;;;;;;;;;5075377;28;20039;-76
2022/12/17 20:57:41;;;;;;;12.88;8.93;;;;;;;;;;5092193;28;20028;-76
2022/12/17 21:00:08;;;;;;;16.73;9.38;;;;;;;;;;5092339;28;20024;-75
2022/12/17 21:02:33;;;;;;;12.30;8.55;;;;;;;;;;5093387;28;20455;-75
2022/12/17 21:04:59;;;;;;;13.73;8.88;;;;;;;;;;5092205;28;20039;-76
2022/12/17 21:07:24;;;;;;;12.88;9.52;;;;;;;;;;5092213;28;20073;-76
2022/12/17 21:09:49;;;;;;;11.88;8.75;;;;;;;;;;5094094;28;20034;-76
2022/12/17 21:12:15;;;;;;;15.48;9.43;;;;;;;;;;5092121;28;20068;-76
2022/12/17 21:14:40;;;;;;;14.20;8.40;;;;;;;;;;5111445;28;20114;-76
2022/12/17 21:17:06;;;;;;;12.90;9.25;;;;;;;;;;5112449;28;20115;-76
2022/12/17 21:19:31;;;;;;;12.55;9.07;;;;;;;;;;5112651;28;20035;-76
2022/12/17 21:21:56;;;;;;;13.40;9.48;;;;;;;;;;5095306;28;20430;-76
2022/12/17 21:24:22;;;;;;;11.82;8.80;;;;;;;;;;5112311;28;20032;-76
2022/12/17 21:26:47;;;;;;;13.85;9.10;;;;;;;;;;5112371;28;20126;-76
2022/12/17 21:29:18;;;;;;;13.40;9.00;;;;;;;;;;5113959;28;20072;-75
2022/12/17 21:31:48;;;;;;;19.02;9.30;;;;;;;;;;5096239;28;20049;-75
2022/12/17 21:34:20;;;;;;;17.77;9.05;;;;;;;;;;5112670;28;20047;-76
2022/12/17 21:36:46;;;;;;;13.63;8.90;;;;;;;;;;5095384;28;20359;-76
2022/12/17 21:39:12;;;;;;;12.30;9.13;;;;;;;;;;5112484;28;20042;-76
2022/12/17 21:41:39;;;;;;;13.30;8.93;;;;;;;;;;5114046;28;20024;-76
2022/12/17 21:44:06;;;;;;;16.05;9.35;;;;;;;;;;5113655;28;20102;-76
2022/12/17 21:46:33;;;;;;;14.20;9.32;;;;;;;;;;5112128;28;20028;-76
2022/12/17 21:48:59;;;;;;;13.40;8.70;;;;;;;;;;5113591;28;20024;-77
2022/12/17 21:51:25;;;;;;;15.50;9.30;;;;;;;;;;5112937;28;20028;-77
2022/12/17 21:53:52;;;;;;;13.15;9.52;;;;;;;;;;5113295;28;20035;-76
2022/12/17 21:56:18;;;;;;;14.20;9.13;;;;;;;;;;5111604;28;20032;-77
2022/12/17 21:58:44;;;;;;;17.90;11.60;;;;;;;;;;5111620;28;20031;-76
2022/12/17 22:01:23;;;;;;;14.45;10.20;;;;;;;;;;5112111;28;20031;-77
2022/12/17 22:03:49;;;;;;;13.50;10.32;;;;;;;;;;5115727;28;20051;-76
2022/12/17 22:06:16;;;;;;;11.85;9.80;;;;;;;;;;5098321;28;20500;-76
2022/12/17 22:08:42;;;;;;;12.43;9.48;;;;;;;;;;5098274;28;20114;-76
2022/12/17 22:11:21;;;;;;;13.50;9.23;;;;;;;;;;5116030;28;20031;-76
2022/12/17 22:14:04;;;;;;;14.63;9.35;;;;;;;;;;5105362;28;20032;-77
2022/12/17 22:16:34;;;;;;;14.40;9.70;;;;;;;;;;5081672;28;20344;-76
2022/12/17 22:19:01;;;;;;;13.52;9.20;;;;;;;;;;5094849;28;20028;-77
2022/12/17 22:21:35;;;;;;;13.73;9.65;;;;;;;;;;5094965;28;20016;-76
2022/12/17 22:24:02;;;;;;;13.35;9.25;;;;;;;;;;5096171;28;20101;-76
2022/12/17 22:26:27;;;;;;;11.57;9.02;;;;;;;;;;5096197;28;20120;-76
2022/12/17 22:28:53;;;;;;;12.82;9.35;;;;;;;;;;5094987;28;20024;-76
2022/12/17 22:34:05;;;;;;;15.27;10.13;;;;;;;;;;5096907;28;20054;-76
2022/12/17 22:36:31;;;;;;;14.75;9.95;;;;;;;;;;5116602;28;20023;-76
2022/12/17 22:39:05;;;;;;;14.27;10.18;;;;;;;;;;5102035;28;20475;-76
2022/12/17 22:44:14;;;;;;;14.80;9.85;;;;;;;;;;5115805;28;20406;-78
2022/12/17 22:46:40;;;;;;;18.55;10.00;;;;;;;;;;5114445;28;20139;-78
2022/12/17 22:49:05;;;;;;;12.73;9.60;;;;;;;;;;5114468;28;20027;-78
2022/12/17 22:51:31;;;;;;;13.13;9.57;;;;;;;;;;5113898;28;20131;-79
2022/12/17 22:53:59;;;;;;;13.70;9.30;;;;;;;;;;5115882;28;20096;-78
2022/12/17 22:56:25;;;;;;;13.23;9.35;;;;;;;;;;5114391;28;20020;-79
2022/12/17 22:58:50;;;;;;;15.75;10.02;;;;;;;;;;5115574;28;20423;-80
2022/12/17 23:01:15;;;;;;;12.88;9.25;;;;;;;;;;5114522;28;20077;-78
2022/12/17 23:03:41;;;;;;;15.15;9.30;;;;;;;;;;5115667;28;20032;-77
2022/12/17 23:06:08;;;;;;;12.25;9.18;;;;;;;;;;5114192;28;20023;-77
2022/12/17 23:08:34;;;;;;;12.65;9.13;;;;;;;;;;5114047;28;20498;-78
2022/12/17 23:11:12;;;;;;;14.07;9.20;;;;;;;;;;5097798;28;20031;-79
2022/12/17 23:13:38;;;;;;;11.68;8.93;;;;;;;;;;5096274;28;20027;-78
2022/12/17 23:16:04;;;;;;;12.65;9.15;;;;;;;;;;5115766;28;20028;-78
2022/12/17 23:18:29;;;;;;;11.95;8.80;;;;;;;;;;5097345;28;20102;-77
2022/12/17 23:20:54;;;;;;;13.70;9.18;;;;;;;;;;5115120;28;20031;-78
2022/12/17 23:23:20;;;;;;;11.15;8.40;;;;;;;;;;5115545;28;20465;-78
2022/12/17 23:25:45;;;;;;;14.05;9.55;;;;;;;;;;5115147;28;20028;-78
2022/12/17 23:28:11;;;;;;;12.77;8.93;;;;;;;;;;5114997;28;20190;-78
2022/12/17 23:30:37;;;;;;;12.85;8.80;;;;;;;;;;5115288;28;20114;-78
2022/12/17 23:33:02;;;;;;;12.07;8.60;;;;;;;;;;5113637;28;20036;-78
2022/12/17 23:35:27;;;;;;;13.43;8.35;;;;;;;;;;5114856;28;20428;-77
2022/12/17 23:37:53;;;;;;;12.48;8.38;;;;;;;;;;5113966;28;20039;-78
2022/12/17 23:40:19;;;;;;;14.07;8.57;;;;;;;;;;5096155;28;20545;-77
2022/12/17 23:42:44;;;;;;;14.75;8.60;;;;;;;;;;5113459;28;20027;-78
2022/12/17 23:45:10;;;;;;;12.75;8.88;;;;;;;;;;5113443;28;20027;-78
2022/12/17 23:47:36;;;;;;;14.77;8.93;;;;;;;;;;5114067;28;20031;-78
2022/12/17 23:50:01;;;;;;;12.13;8.52;;;;;;;;;;5114594;28;20480;-78
2022/12/17 23:52:27;;;;;;;13.48;9.10;;;;;;;;;;5113649;28;20032;-78
2022/12/17 23:54:52;;;;;;;11.20;8.27;;;;;;;;;;5114716;28;20114;-78
2022/12/17 23:57:18;;;;;;;13.35;8.60;;;;;;;;;;5114795;28;20047;-77
2022/12/17 23:59:44;;;;;;;12.50;8.85;;;;;;;;;;5113158;28;20497;-77
